sensor_id;sensor_type;location;lat;lon;timestamp;temperature;humidity
19258;DHT22;9763;48.780;9.212;2024-02-16T00:03:00;13.40;75.30
19258;DHT22;9763;48.780;9.212;2024-02-16T00:06:24;13.50;75.50
19258;DHT22;9763;48.780;9.212;2024-02-16T00:09:48;13.50;75.30
19258;DHT22;9763;48.780;9.212;2024-02-16T00:13:13;13.50;75.20
19258;DHT22;9763;48.780;9.212;2024-02-16T00:16:36;13.50;75.30
19258;DHT22;9763;48.780;9.212;2024-02-16T00:20:00;13.50;75.50
19258;DHT22;9763;48.780;9.212;2024-02-16T00:23:25;13.50;75.80
19258;DHT22;9763;48.780;9.212;2024-02-16T00:26:48;13.50;75.80
19258;DHT22;9763;48.780;9.212;2024-02-16T00:30:14;13.50;75.80
19258;DHT22;9763;48.780;9.212;2024-02-16T00:33:40;13.50;75.80
19258;DHT22;9763;48.780;9.212;2024-02-16T00:37:05;13.50;75.80
19258;DHT22;9763;48.780;9.212;2024-02-16T00:40:31;13.60;75.80
19258;DHT22;9763;48.780;9.212;2024-02-16T00:43:58;13.60;75.60
19258;DHT22;9763;48.780;9.212;2024-02-16T00:47:23;13.60;75.40
19258;DHT22;9763;48.780;9.212;2024-02-16T00:50:47;13.50;75.00
19258;DHT22;9763;48.780;9.212;2024-02-16T00:54:11;13.50;75.30
19258;DHT22;9763;48.780;9.212;2024-02-16T00:57:34;13.40;75.50
19258;DHT22;9763;48.780;9.212;2024-02-16T01:00:58;13.40;75.60
19258;DHT22;9763;48.780;9.212;2024-02-16T01:04:24;13.40;75.80
19258;DHT22;9763;48.780;9.212;2024-02-16T01:07:48;13.40;75.90
19258;DHT22;9763;48.780;9.212;2024-02-16T01:11:12;13.40;75.80
19258;DHT22;9763;48.780;9.212;2024-02-16T01:14:37;13.40;75.90
19258;DHT22;9763;48.780;9.212;2024-02-16T01:18:00;13.40;76.10
19258;DHT22;9763;48.780;9.212;2024-02-16T01:21:26;13.40;76.10
19258;DHT22;9763;48.780;9.212;2024-02-16T01:24:49;13.40;76.00
19258;DHT22;9763;48.780;9.212;2024-02-16T01:28:13;13.50;76.20
19258;DHT22;9763;48.780;9.212;2024-02-16T01:31:37;13.40;76.00
19258;DHT22;9763;48.780;9.212;2024-02-16T01:35:00;13.40;76.00
19258;DHT22;9763;48.780;9.212;2024-02-16T01:38:25;13.50;76.10
19258;DHT22;9763;48.780;9.212;2024-02-16T01:41:49;13.50;76.20
19258;DHT22;9763;48.780;9.212;2024-02-16T01:45:13;13.50;76.20
19258;DHT22;9763;48.780;9.212;2024-02-16T01:48:37;13.50;76.10
19258;DHT22;9763;48.780;9.212;2024-02-16T01:52:03;13.50;76.20
19258;DHT22;9763;48.780;9.212;2024-02-16T01:55:28;13.50;76.20
19258;DHT22;9763;48.780;9.212;2024-02-16T01:58:52;13.50;76.20
19258;DHT22;9763;48.780;9.212;2024-02-16T02:02:17;13.50;76.10
19258;DHT22;9763;48.780;9.212;2024-02-16T02:05:44;13.50;76.20
19258;DHT22;9763;48.780;9.212;2024-02-16T02:09:09;13.50;76.20
19258;DHT22;9763;48.780;9.212;2024-02-16T02:12:33;13.50;76.20
19258;DHT22;9763;48.780;9.212;2024-02-16T02:15:58;13.50;76.40
19258;DHT22;9763;48.780;9.212;2024-02-16T02:19:23;13.50;76.50
19258;DHT22;9763;48.780;9.212;2024-02-16T02:22:48;13.50;76.60
19258;DHT22;9763;48.780;9.212;2024-02-16T02:26:14;13.60;76.70
19258;DHT22;9763;48.780;9.212;2024-02-16T02:29:39;13.60;76.70
19258;DHT22;9763;48.780;9.212;2024-02-16T02:33:04;13.60;76.80
19258;DHT22;9763;48.780;9.212;2024-02-16T02:36:28;13.50;76.50
19258;DHT22;9763;48.780;9.212;2024-02-16T02:39:52;13.50;76.60
19258;DHT22;9763;48.780;9.212;2024-02-16T02:43:16;13.40;76.60
19258;DHT22;9763;48.780;9.212;2024-02-16T02:46:41;13.50;76.90
19258;DHT22;9763;48.780;9.212;2024-02-16T02:50:05;13.40;76.80
19258;DHT22;9763;48.780;9.212;2024-02-16T02:53:30;13.40;77.10
19258;DHT22;9763;48.780;9.212;2024-02-16T02:56:54;13.40;77.20
19258;DHT22;9763;48.780;9.212;2024-02-16T03:00:19;13.40;77.20
19258;DHT22;9763;48.780;9.212;2024-02-16T03:03:42;13.40;77.30
19258;DHT22;9763;48.780;9.212;2024-02-16T03:07:06;13.40;77.30
19258;DHT22;9763;48.780;9.212;2024-02-16T03:10:30;13.40;77.30
19258;DHT22;9763;48.780;9.212;2024-02-16T03:13:58;13.40;77.30
19258;DHT22;9763;48.780;9.212;2024-02-16T03:17:21;13.40;77.30
19258;DHT22;9763;48.780;9.212;2024-02-16T03:20:45;13.40;77.30
19258;DHT22;9763;48.780;9.212;2024-02-16T03:24:11;13.40;77.90
19258;DHT22;9763;48.780;9.212;2024-02-16T03:27:35;13.40;77.10
19258;DHT22;9763;48.780;9.212;2024-02-16T03:31:00;13.40;77.10
19258;DHT22;9763;48.780;9.212;2024-02-16T03:34:25;13.40;77.10
19258;DHT22;9763;48.780;9.212;2024-02-16T03:37:48;13.40;77.20
19258;DHT22;9763;48.780;9.212;2024-02-16T03:41:13;13.70;77.60
19258;DHT22;9763;48.780;9.212;2024-02-16T03:44:38;13.40;77.40
19258;DHT22;9763;48.780;9.212;2024-02-16T03:48:04;13.40;77.30
19258;DHT22;9763;48.780;9.212;2024-02-16T03:51:28;13.40;77.30
19258;DHT22;9763;48.780;9.212;2024-02-16T03:54:52;13.40;77.30
19258;DHT22;9763;48.780;9.212;2024-02-16T03:58:15;13.40;77.20
19258;DHT22;9763;48.780;9.212;2024-02-16T04:01:39;13.40;77.20
19258;DHT22;9763;48.780;9.212;2024-02-16T04:05:06;13.40;77.20
19258;DHT22;9763;48.780;9.212;2024-02-16T04:08:30;13.40;77.10
19258;DHT22;9763;48.780;9.212;2024-02-16T04:11:54;13.30;77.10
19258;DHT22;9763;48.780;9.212;2024-02-16T04:15:18;13.50;77.10
19258;DHT22;9763;48.780;9.212;2024-02-16T04:18:42;13.50;77.20
19258;DHT22;9763;48.780;9.212;2024-02-16T04:22:07;13.50;77.30
19258;DHT22;9763;48.780;9.212;2024-02-16T04:25:30;13.50;77.20
19258;DHT22;9763;48.780;9.212;2024-02-16T04:28:54;13.50;77.10
19258;DHT22;9763;48.780;9.212;2024-02-16T04:32:17;13.40;77.00
19258;DHT22;9763;48.780;9.212;2024-02-16T04:35:41;13.40;77.00
19258;DHT22;9763;48.780;9.212;2024-02-16T04:39:06;13.30;77.10
19258;DHT22;9763;48.780;9.212;2024-02-16T04:42:32;13.30;77.20
19258;DHT22;9763;48.780;9.212;2024-02-16T04:45:55;13.30;77.30
19258;DHT22;9763;48.780;9.212;2024-02-16T04:49:19;13.30;77.10
19258;DHT22;9763;48.780;9.212;2024-02-16T04:52:43;13.30;77.10
19258;DHT22;9763;48.780;9.212;2024-02-16T04:56:09;13.20;77.00
19258;DHT22;9763;48.780;9.212;2024-02-16T04:59:32;13.20;77.00
19258;DHT22;9763;48.780;9.212;2024-02-16T05:02:56;13.20;77.20
19258;DHT22;9763;48.780;9.212;2024-02-16T05:06:20;13.20;77.30
19258;DHT22;9763;48.780;9.212;2024-02-16T05:09:45;13.20;77.30
19258;DHT22;9763;48.780;9.212;2024-02-16T05:13:10;13.20;77.30
19258;DHT22;9763;48.780;9.212;2024-02-16T05:16:36;13.20;77.30
19258;DHT22;9763;48.780;9.212;2024-02-16T05:20:00;13.40;77.60
19258;DHT22;9763;48.780;9.212;2024-02-16T05:23:23;13.20;77.40
19258;DHT22;9763;48.780;9.212;2024-02-16T05:26:47;13.20;77.30
19258;DHT22;9763;48.780;9.212;2024-02-16T05:30:14;13.20;77.30
19258;DHT22;9763;48.780;9.212;2024-02-16T05:33:38;13.20;77.30
19258;DHT22;9763;48.780;9.212;2024-02-16T05:37:02;13.20;77.20
19258;DHT22;9763;48.780;9.212;2024-02-16T05:40:28;13.20;77.10
19258;DHT22;9763;48.780;9.212;2024-02-16T05:43:52;13.20;77.20
19258;DHT22;9763;48.780;9.212;2024-02-16T05:47:17;13.10;77.10
19258;DHT22;9763;48.780;9.212;2024-02-16T05:50:41;13.10;77.30
19258;DHT22;9763;48.780;9.212;2024-02-16T05:54:06;13.10;77.40
19258;DHT22;9763;48.780;9.212;2024-02-16T05:57:30;13.10;77.50
19258;DHT22;9763;48.780;9.212;2024-02-16T06:00:54;13.10;77.30
19258;DHT22;9763;48.780;9.212;2024-02-16T06:04:20;13.10;77.30
19258;DHT22;9763;48.780;9.212;2024-02-16T06:07:44;12.50;76.50
19258;DHT22;9763;48.780;9.212;2024-02-16T06:11:07;13.10;77.10
19258;DHT22;9763;48.780;9.212;2024-02-16T06:14:31;13.10;77.10
19258;DHT22;9763;48.780;9.212;2024-02-16T06:17:56;13.00;77.00
19258;DHT22;9763;48.780;9.212;2024-02-16T06:21:21;13.00;77.00
19258;DHT22;9763;48.780;9.212;2024-02-16T06:24:44;13.00;77.00
19258;DHT22;9763;48.780;9.212;2024-02-16T06:28:08;13.00;77.00
19258;DHT22;9763;48.780;9.212;2024-02-16T06:31:33;13.00;77.00
19258;DHT22;9763;48.780;9.212;2024-02-16T06:34:56;13.00;77.00
19258;DHT22;9763;48.780;9.212;2024-02-16T06:38:21;13.00;77.00
19258;DHT22;9763;48.780;9.212;2024-02-16T06:41:46;13.00;77.00
19258;DHT22;9763;48.780;9.212;2024-02-16T06:45:09;13.00;77.20
19258;DHT22;9763;48.780;9.212;2024-02-16T06:48:33;13.00;77.20
19258;DHT22;9763;48.780;9.212;2024-02-16T06:51:57;13.00;77.20
19258;DHT22;9763;48.780;9.212;2024-02-16T06:55:22;13.00;77.30
19258;DHT22;9763;48.780;9.212;2024-02-16T06:58:46;12.90;77.10
19258;DHT22;9763;48.780;9.212;2024-02-16T07:02:10;12.90;77.20
19258;DHT22;9763;48.780;9.212;2024-02-16T07:05:34;12.90;77.10
19258;DHT22;9763;48.780;9.212;2024-02-16T07:08:58;12.90;77.10
19258;DHT22;9763;48.780;9.212;2024-02-16T07:12:24;12.90;77.00
19258;DHT22;9763;48.780;9.212;2024-02-16T07:15:48;12.90;77.10
19258;DHT22;9763;48.780;9.212;2024-02-16T07:19:11;12.90;77.20
19258;DHT22;9763;48.780;9.212;2024-02-16T07:22:35;12.90;77.30
19258;DHT22;9763;48.780;9.212;2024-02-16T07:25:59;12.90;77.30
19258;DHT22;9763;48.780;9.212;2024-02-16T07:29:29;12.80;77.40
19258;DHT22;9763;48.780;9.212;2024-02-16T07:32:52;12.90;77.40
19258;DHT22;9763;48.780;9.212;2024-02-16T07:36:17;12.90;77.50
19258;DHT22;9763;48.780;9.212;2024-02-16T07:39:41;12.90;77.50
19258;DHT22;9763;48.780;9.212;2024-02-16T07:43:05;13.00;77.50
19258;DHT22;9763;48.780;9.212;2024-02-16T07:46:29;13.00;77.30
19258;DHT22;9763;48.780;9.212;2024-02-16T07:49:57;13.00;77.30
19258;DHT22;9763;48.780;9.212;2024-02-16T07:53:21;13.00;77.20
19258;DHT22;9763;48.780;9.212;2024-02-16T07:56:44;13.10;77.10
19258;DHT22;9763;48.780;9.212;2024-02-16T08:00:08;13.00;77.10
19258;DHT22;9763;48.780;9.212;2024-02-16T08:03:34;13.00;77.30
19258;DHT22;9763;48.780;9.212;2024-02-16T08:06:58;13.00;77.20
19258;DHT22;9763;48.780;9.212;2024-02-16T08:10:23;13.00;77.20
19258;DHT22;9763;48.780;9.212;2024-02-16T08:13:47;13.00;77.30
19258;DHT22;9763;48.780;9.212;2024-02-16T08:17:11;13.10;77.40
19258;DHT22;9763;48.780;9.212;2024-02-16T08:20:43;13.10;77.40
19258;DHT22;9763;48.780;9.212;2024-02-16T08:24:06;13.20;77.50
19258;DHT22;9763;48.780;9.212;2024-02-16T08:27:30;13.20;77.70
19258;DHT22;9763;48.780;9.212;2024-02-16T08:30:54;13.30;78.80
19258;DHT22;9763;48.780;9.212;2024-02-16T08:34:18;13.50;82.40
19258;DHT22;9763;48.780;9.212;2024-02-16T08:37:43;13.90;87.10
19258;DHT22;9763;48.780;9.212;2024-02-16T08:41:07;14.70;90.20
19258;DHT22;9763;48.780;9.212;2024-02-16T08:44:30;15.30;90.00
19258;DHT22;9763;48.780;9.212;2024-02-16T08:47:54;16.00;87.60
19258;DHT22;9763;48.780;9.212;2024-02-16T08:51:19;16.30;85.50
19258;DHT22;9763;48.780;9.212;2024-02-16T08:54:44;16.60;84.00
19258;DHT22;9763;48.780;9.212;2024-02-16T08:58:07;16.80;83.90
19258;DHT22;9763;48.780;9.212;2024-02-16T09:01:33;17.10;84.30
19258;DHT22;9763;48.780;9.212;2024-02-16T09:04:57;17.30;83.00
19258;DHT22;9763;48.780;9.212;2024-02-16T09:08:20;17.40;81.50
19258;DHT22;9763;48.780;9.212;2024-02-16T09:11:45;17.40;80.30
19258;DHT22;9763;48.780;9.212;2024-02-16T09:15:09;17.40;79.40
19258;DHT22;9763;48.780;9.212;2024-02-16T09:18:34;17.40;79.20
19258;DHT22;9763;48.780;9.212;2024-02-16T09:21:59;17.30;79.00
19258;DHT22;9763;48.780;9.212;2024-02-16T09:25:25;17.30;78.70
19258;DHT22;9763;48.780;9.212;2024-02-16T09:28:50;17.30;78.70
19258;DHT22;9763;48.780;9.212;2024-02-16T09:32:13;17.30;78.80
19258;DHT22;9763;48.780;9.212;2024-02-16T09:35:37;17.30;79.20
19258;DHT22;9763;48.780;9.212;2024-02-16T09:39:01;17.40;79.40
19258;DHT22;9763;48.780;9.212;2024-02-16T09:42:24;17.40;79.70
19258;DHT22;9763;48.780;9.212;2024-02-16T09:45:54;17.50;80.10
19258;DHT22;9763;48.780;9.212;2024-02-16T09:49:18;17.60;79.90
19258;DHT22;9763;48.780;9.212;2024-02-16T09:52:56;17.80;81.00
19258;DHT22;9763;48.780;9.212;2024-02-16T09:56:22;18.00;81.70
19258;DHT22;9763;48.780;9.212;2024-02-16T09:59:46;18.30;82.20
19258;DHT22;9763;48.780;9.212;2024-02-16T10:03:22;18.50;82.20
19258;DHT22;9763;48.780;9.212;2024-02-16T10:06:47;18.70;80.40
19258;DHT22;9763;48.780;9.212;2024-02-16T10:10:21;19.00;81.80
19258;DHT22;9763;48.780;9.212;2024-02-16T10:13:54;19.20;80.70
19258;DHT22;9763;48.780;9.212;2024-02-16T10:17:19;19.40;80.80
19258;DHT22;9763;48.780;9.212;2024-02-16T10:20:44;19.60;81.50
19258;DHT22;9763;48.780;9.212;2024-02-16T10:24:09;19.80;80.30
19258;DHT22;9763;48.780;9.212;2024-02-16T10:27:36;19.90;79.80
19258;DHT22;9763;48.780;9.212;2024-02-16T10:31:00;20.00;79.60
19258;DHT22;9763;48.780;9.212;2024-02-16T10:34:24;20.10;79.30
19258;DHT22;9763;48.780;9.212;2024-02-16T10:37:54;20.10;79.00
19258;DHT22;9763;48.780;9.212;2024-02-16T10:41:20;20.20;78.40
19258;DHT22;9763;48.780;9.212;2024-02-16T10:44:47;20.20;78.30
19258;DHT22;9763;48.780;9.212;2024-02-16T10:48:12;20.30;78.10
19258;DHT22;9763;48.780;9.212;2024-02-16T10:51:40;20.20;77.50
19258;DHT22;9763;48.780;9.212;2024-02-16T10:55:08;20.20;76.90
19258;DHT22;9763;48.780;9.212;2024-02-16T10:58:33;20.20;76.50
19258;DHT22;9763;48.780;9.212;2024-02-16T11:02:00;20.10;76.40
19258;DHT22;9763;48.780;9.212;2024-02-16T11:05:34;20.10;76.00
19258;DHT22;9763;48.780;9.212;2024-02-16T11:09:01;20.00;75.00
19258;DHT22;9763;48.780;9.212;2024-02-16T11:12:34;20.00;75.90
19258;DHT22;9763;48.780;9.212;2024-02-16T11:15:58;20.00;75.80
19258;DHT22;9763;48.780;9.212;2024-02-16T11:19:23;20.00;76.30
19258;DHT22;9763;48.780;9.212;2024-02-16T11:22:48;20.00;76.10
19258;DHT22;9763;48.780;9.212;2024-02-16T11:26:12;20.00;75.90
19258;DHT22;9763;48.780;9.212;2024-02-16T11:29:39;20.00;75.90
19258;DHT22;9763;48.780;9.212;2024-02-16T11:33:04;20.00;75.50
19258;DHT22;9763;48.780;9.212;2024-02-16T11:36:28;20.00;75.60
19258;DHT22;9763;48.780;9.212;2024-02-16T11:39:55;20.10;75.60
19258;DHT22;9763;48.780;9.212;2024-02-16T11:43:20;20.10;75.00
19258;DHT22;9763;48.780;9.212;2024-02-16T11:46:45;20.10;75.10
19258;DHT22;9763;48.780;9.212;2024-02-16T11:50:10;20.10;75.00
19258;DHT22;9763;48.780;9.212;2024-02-16T11:53:34;20.10;75.10
19258;DHT22;9763;48.780;9.212;2024-02-16T11:56:58;20.10;75.40
19258;DHT22;9763;48.780;9.212;2024-02-16T12:00:22;20.10;75.40
19258;DHT22;9763;48.780;9.212;2024-02-16T12:03:47;20.20;75.90
19258;DHT22;9763;48.780;9.212;2024-02-16T12:07:12;20.40;76.20
19258;DHT22;9763;48.780;9.212;2024-02-16T12:10:36;20.40;76.40
19258;DHT22;9763;48.780;9.212;2024-02-16T12:14:00;20.60;76.90
19258;DHT22;9763;48.780;9.212;2024-02-16T12:17:25;20.80;76.80
19258;DHT22;9763;48.780;9.212;2024-02-16T12:21:00;20.90;76.20
19258;DHT22;9763;48.780;9.212;2024-02-16T12:24:25;21.10;74.50
19258;DHT22;9763;48.780;9.212;2024-02-16T12:27:49;21.30;76.20
19258;DHT22;9763;48.780;9.212;2024-02-16T12:31:18;21.30;75.90
19258;DHT22;9763;48.780;9.212;2024-02-16T12:34:42;21.40;74.50
19258;DHT22;9763;48.780;9.212;2024-02-16T12:38:08;21.60;75.00
19258;DHT22;9763;48.780;9.212;2024-02-16T12:41:32;21.70;74.30
19258;DHT22;9763;48.780;9.212;2024-02-16T12:44:56;21.80;74.00
19258;DHT22;9763;48.780;9.212;2024-02-16T12:48:19;21.70;73.50
19258;DHT22;9763;48.780;9.212;2024-02-16T12:51:43;21.60;73.00
19258;DHT22;9763;48.780;9.212;2024-02-16T12:55:09;21.80;73.10
19258;DHT22;9763;48.780;9.212;2024-02-16T12:58:33;21.60;72.50
19258;DHT22;9763;48.780;9.212;2024-02-16T13:01:56;21.50;72.60
19258;DHT22;9763;48.780;9.212;2024-02-16T13:05:20;21.50;72.40
19258;DHT22;9763;48.780;9.212;2024-02-16T13:08:44;21.40;72.00
19258;DHT22;9763;48.780;9.212;2024-02-16T13:12:09;21.40;71.80
19258;DHT22;9763;48.780;9.212;2024-02-16T13:15:33;21.30;71.50
19258;DHT22;9763;48.780;9.212;2024-02-16T13:18:57;21.20;71.80
19258;DHT22;9763;48.780;9.212;2024-02-16T13:22:20;21.10;71.60
19258;DHT22;9763;48.780;9.212;2024-02-16T13:25:44;21.10;71.70
19258;DHT22;9763;48.780;9.212;2024-02-16T13:29:10;21.00;71.80
19258;DHT22;9763;48.780;9.212;2024-02-16T13:32:34;20.90;71.50
19258;DHT22;9763;48.780;9.212;2024-02-16T13:36:02;20.90;71.70
19258;DHT22;9763;48.780;9.212;2024-02-16T13:39:27;20.80;71.60
19258;DHT22;9763;48.780;9.212;2024-02-16T13:42:51;20.80;71.70
19258;DHT22;9763;48.780;9.212;2024-02-16T13:46:18;20.80;71.50
19258;DHT22;9763;48.780;9.212;2024-02-16T13:49:42;20.70;71.40
19258;DHT22;9763;48.780;9.212;2024-02-16T13:53:06;20.60;71.50
19258;DHT22;9763;48.780;9.212;2024-02-16T13:56:29;20.60;71.40
19258;DHT22;9763;48.780;9.212;2024-02-16T13:59:53;20.50;71.50
19258;DHT22;9763;48.780;9.212;2024-02-16T14:03:18;20.50;71.60
19258;DHT22;9763;48.780;9.212;2024-02-16T14:06:43;20.40;71.20
19258;DHT22;9763;48.780;9.212;2024-02-16T14:10:07;20.40;71.40
19258;DHT22;9763;48.780;9.212;2024-02-16T14:13:31;20.30;71.40
19258;DHT22;9763;48.780;9.212;2024-02-16T14:16:55;20.30;71.60
19258;DHT22;9763;48.780;9.212;2024-02-16T14:20:20;20.20;71.60
19258;DHT22;9763;48.780;9.212;2024-02-16T14:23:44;20.10;71.40
19258;DHT22;9763;48.780;9.212;2024-02-16T14:27:07;20.10;71.70
19258;DHT22;9763;48.780;9.212;2024-02-16T14:30:31;20.10;71.70
19258;DHT22;9763;48.780;9.212;2024-02-16T14:33:56;20.10;71.90
19258;DHT22;9763;48.780;9.212;2024-02-16T14:37:21;20.10;71.80
19258;DHT22;9763;48.780;9.212;2024-02-16T14:40:45;20.00;71.60
19258;DHT22;9763;48.780;9.212;2024-02-16T14:44:08;20.00;71.70
19258;DHT22;9763;48.780;9.212;2024-02-16T14:47:32;19.90;71.90
19258;DHT22;9763;48.780;9.212;2024-02-16T14:50:56;19.90;72.10
19258;DHT22;9763;48.780;9.212;2024-02-16T14:54:22;19.90;72.20
19258;DHT22;9763;48.780;9.212;2024-02-16T14:57:47;19.90;71.90
19258;DHT22;9763;48.780;9.212;2024-02-16T15:01:12;19.80;71.80
19258;DHT22;9763;48.780;9.212;2024-02-16T15:04:35;19.80;71.80
19258;DHT22;9763;48.780;9.212;2024-02-16T15:07:59;19.70;71.60
19258;DHT22;9763;48.780;9.212;2024-02-16T15:11:27;19.70;71.70
19258;DHT22;9763;48.780;9.212;2024-02-16T15:14:51;19.50;71.40
19258;DHT22;9763;48.780;9.212;2024-02-16T15:18:15;19.50;71.50
19258;DHT22;9763;48.780;9.212;2024-02-16T15:21:39;19.40;71.40
19258;DHT22;9763;48.780;9.212;2024-02-16T15:25:03;19.40;71.60
19258;DHT22;9763;48.780;9.212;2024-02-16T15:28:29;19.30;71.50
19258;DHT22;9763;48.780;9.212;2024-02-16T15:31:53;19.30;71.60
19258;DHT22;9763;48.780;9.212;2024-02-16T15:35:17;19.20;71.70
19258;DHT22;9763;48.780;9.212;2024-02-16T15:38:41;19.10;71.90
19258;DHT22;9763;48.780;9.212;2024-02-16T15:42:05;19.10;71.70
19258;DHT22;9763;48.780;9.212;2024-02-16T15:45:31;19.10;72.10
19258;DHT22;9763;48.780;9.212;2024-02-16T15:48:57;19.00;71.80
19258;DHT22;9763;48.780;9.212;2024-02-16T15:52:20;19.00;71.80
19258;DHT22;9763;48.780;9.212;2024-02-16T15:55:43;18.90;71.60
19258;DHT22;9763;48.780;9.212;2024-02-16T15:59:07;18.90;71.80
19258;DHT22;9763;48.780;9.212;2024-02-16T16:02:34;18.80;71.80
19258;DHT22;9763;48.780;9.212;2024-02-16T16:05:57;18.80;71.50
19258;DHT22;9763;48.780;9.212;2024-02-16T16:09:22;18.80;71.70
19258;DHT22;9763;48.780;9.212;2024-02-16T16:12:47;18.90;72.10
19258;DHT22;9763;48.780;9.212;2024-02-16T16:16:11;18.60;71.80
19258;DHT22;9763;48.780;9.212;2024-02-16T16:19:36;18.60;71.80
19258;DHT22;9763;48.780;9.212;2024-02-16T16:22:59;18.60;71.60
19258;DHT22;9763;48.780;9.212;2024-02-16T16:26:24;18.50;71.80
19258;DHT22;9763;48.780;9.212;2024-02-16T16:29:48;18.40;71.70
19258;DHT22;9763;48.780;9.212;2024-02-16T16:33:12;18.40;71.70
19258;DHT22;9763;48.780;9.212;2024-02-16T16:36:37;18.30;71.50
19258;DHT22;9763;48.780;9.212;2024-02-16T16:40:02;18.30;71.70
19258;DHT22;9763;48.780;9.212;2024-02-16T16:43:26;18.40;72.20
19258;DHT22;9763;48.780;9.212;2024-02-16T16:46:49;18.20;71.90
19258;DHT22;9763;48.780;9.212;2024-02-16T16:50:16;18.20;72.80
19258;DHT22;9763;48.780;9.212;2024-02-16T16:53:43;18.10;71.80
19258;DHT22;9763;48.780;9.212;2024-02-16T16:57:06;18.10;72.00
19258;DHT22;9763;48.780;9.212;2024-02-16T17:00:30;18.10;72.00
19258;DHT22;9763;48.780;9.212;2024-02-16T17:03:54;18.10;72.30
19258;DHT22;9763;48.780;9.212;2024-02-16T17:07:17;18.00;73.10
19258;DHT22;9763;48.780;9.212;2024-02-16T17:10:42;18.00;72.40
19258;DHT22;9763;48.780;9.212;2024-02-16T17:14:06;17.90;72.10
19258;DHT22;9763;48.780;9.212;2024-02-16T17:17:31;17.90;72.50
19258;DHT22;9763;48.780;9.212;2024-02-16T17:20:55;17.90;72.50
19258;DHT22;9763;48.780;9.212;2024-02-16T17:24:19;17.80;72.30
19258;DHT22;9763;48.780;9.212;2024-02-16T17:27:44;17.80;72.40
19258;DHT22;9763;48.780;9.212;2024-02-16T17:31:08;17.80;72.40
19258;DHT22;9763;48.780;9.212;2024-02-16T17:34:32;17.70;72.50
19258;DHT22;9763;48.780;9.212;2024-02-16T17:37:56;17.70;72.60
19258;DHT22;9763;48.780;9.212;2024-02-16T17:41:23;17.70;72.80
19258;DHT22;9763;48.780;9.212;2024-02-16T17:44:48;17.70;72.80
19258;DHT22;9763;48.780;9.212;2024-02-16T17:48:12;17.60;72.80
19258;DHT22;9763;48.780;9.212;2024-02-16T17:51:36;17.50;72.70
19258;DHT22;9763;48.780;9.212;2024-02-16T17:55:01;17.50;73.70
19258;DHT22;9763;48.780;9.212;2024-02-16T17:58:29;17.40;73.10
19258;DHT22;9763;48.780;9.212;2024-02-16T18:01:55;17.30;73.10
19258;DHT22;9763;48.780;9.212;2024-02-16T18:05:19;17.20;73.20
19258;DHT22;9763;48.780;9.212;2024-02-16T18:08:43;17.10;73.40
19258;DHT22;9763;48.780;9.212;2024-02-16T18:12:08;17.00;73.60
19258;DHT22;9763;48.780;9.212;2024-02-16T18:15:32;17.00;74.00
19258;DHT22;9763;48.780;9.212;2024-02-16T18:18:57;17.00;74.20
19258;DHT22;9763;48.780;9.212;2024-02-16T18:22:26;17.00;75.00
19258;DHT22;9763;48.780;9.212;2024-02-16T18:25:50;17.00;74.30
19258;DHT22;9763;48.780;9.212;2024-02-16T18:29:15;16.90;74.20
19258;DHT22;9763;48.780;9.212;2024-02-16T18:32:38;17.00;74.10
19258;DHT22;9763;48.780;9.212;2024-02-16T18:36:04;16.90;74.60
19258;DHT22;9763;48.780;9.212;2024-02-16T18:39:29;16.90;74.90
19258;DHT22;9763;48.780;9.212;2024-02-16T18:42:52;16.90;75.00
19258;DHT22;9763;48.780;9.212;2024-02-16T18:46:16;16.80;74.80
19258;DHT22;9763;48.780;9.212;2024-02-16T18:49:40;16.80;75.00
19258;DHT22;9763;48.780;9.212;2024-02-16T18:53:05;16.80;75.10
19258;DHT22;9763;48.780;9.212;2024-02-16T18:56:30;16.80;75.30
19258;DHT22;9763;48.780;9.212;2024-02-16T18:59:53;16.70;75.10
19258;DHT22;9763;48.780;9.212;2024-02-16T19:03:17;16.70;75.20
19258;DHT22;9763;48.780;9.212;2024-02-16T19:06:41;16.70;75.30
19258;DHT22;9763;48.780;9.212;2024-02-16T19:10:07;16.60;75.40
19258;DHT22;9763;48.780;9.212;2024-02-16T19:13:31;16.60;75.60
19258;DHT22;9763;48.780;9.212;2024-02-16T19:16:55;16.50;75.50
19258;DHT22;9763;48.780;9.212;2024-02-16T19:20:18;16.60;75.60
19258;DHT22;9763;48.780;9.212;2024-02-16T19:23:42;16.50;75.70
19258;DHT22;9763;48.780;9.212;2024-02-16T19:27:08;16.50;75.60
19258;DHT22;9763;48.780;9.212;2024-02-16T19:30:32;16.50;75.80
19258;DHT22;9763;48.780;9.212;2024-02-16T19:33:55;16.50;75.80
19258;DHT22;9763;48.780;9.212;2024-02-16T19:37:19;16.50;75.90
19258;DHT22;9763;48.780;9.212;2024-02-16T19:40:42;16.50;76.00
19258;DHT22;9763;48.780;9.212;2024-02-16T19:44:07;16.50;76.00
19258;DHT22;9763;48.780;9.212;2024-02-16T19:47:31;16.40;76.10
19258;DHT22;9763;48.780;9.212;2024-02-16T19:50:54;16.40;76.20
19258;DHT22;9763;48.780;9.212;2024-02-16T19:54:18;16.40;76.30
19258;DHT22;9763;48.780;9.212;2024-02-16T19:57:42;16.40;76.40
19258;DHT22;9763;48.780;9.212;2024-02-16T20:01:10;16.40;76.40
19258;DHT22;9763;48.780;9.212;2024-02-16T20:04:33;16.40;77.20
19258;DHT22;9763;48.780;9.212;2024-02-16T20:07:57;16.30;76.40
19258;DHT22;9763;48.780;9.212;2024-02-16T20:11:21;16.30;76.50
19258;DHT22;9763;48.780;9.212;2024-02-16T20:14:44;16.30;76.50
19258;DHT22;9763;48.780;9.212;2024-02-16T20:18:09;16.30;76.40
19258;DHT22;9763;48.780;9.212;2024-02-16T20:21:36;16.30;76.50
19258;DHT22;9763;48.780;9.212;2024-02-16T20:25:00;16.30;76.40
19258;DHT22;9763;48.780;9.212;2024-02-16T20:28:28;16.30;76.60
19258;DHT22;9763;48.780;9.212;2024-02-16T20:31:51;16.20;76.60
19258;DHT22;9763;48.780;9.212;2024-02-16T20:35:16;16.20;76.70
19258;DHT22;9763;48.780;9.212;2024-02-16T20:38:40;16.20;77.00
19258;DHT22;9763;48.780;9.212;2024-02-16T20:42:04;16.20;77.10
19258;DHT22;9763;48.780;9.212;2024-02-16T20:45:28;16.10;77.10
19258;DHT22;9763;48.780;9.212;2024-02-16T20:48:54;16.10;77.10
19258;DHT22;9763;48.780;9.212;2024-02-16T20:52:19;16.10;77.10
19258;DHT22;9763;48.780;9.212;2024-02-16T20:55:43;16.10;77.10
19258;DHT22;9763;48.780;9.212;2024-02-16T20:59:06;16.10;77.20
19258;DHT22;9763;48.780;9.212;2024-02-16T21:02:31;16.40;77.70
19258;DHT22;9763;48.780;9.212;2024-02-16T21:05:54;16.10;77.40
19258;DHT22;9763;48.780;9.212;2024-02-16T21:09:21;16.00;77.30
19258;DHT22;9763;48.780;9.212;2024-02-16T21:12:44;16.00;77.40
19258;DHT22;9763;48.780;9.212;2024-02-16T21:16:08;16.00;77.60
19258;DHT22;9763;48.780;9.212;2024-02-16T21:19:32;16.00;77.70
19258;DHT22;9763;48.780;9.212;2024-02-16T21:22:55;16.00;77.80
19258;DHT22;9763;48.780;9.212;2024-02-16T21:26:21;16.00;78.00
19258;DHT22;9763;48.780;9.212;2024-02-16T21:29:45;16.00;78.30
19258;DHT22;9763;48.780;9.212;2024-02-16T21:33:09;15.90;78.40
19258;DHT22;9763;48.780;9.212;2024-02-16T21:36:34;15.90;78.80
19258;DHT22;9763;48.780;9.212;2024-02-16T21:39:58;15.90;79.40
19258;DHT22;9763;48.780;9.212;2024-02-16T21:43:23;15.90;80.00
19258;DHT22;9763;48.780;9.212;2024-02-16T21:46:47;15.90;80.50
19258;DHT22;9763;48.780;9.212;2024-02-16T21:50:10;15.90;80.80
19258;DHT22;9763;48.780;9.212;2024-02-16T21:53:34;15.80;81.20